Impacts TAF Board
For situational awareness. Not to be used for flight planning purposes.
IDs:

KCLE - Cleveland/Hopkins In, OH, US

Issued at 0242 UTC 03 Jul 2022
Updated at 0445 UTC 03 Jul 2022
Potential Impact None Slight Moderate High
Time0351Z 03/05Z 03/06Z 03/07Z 03/08Z 03/09Z 03/10Z 03/11Z 03/12Z 03/13Z 03/14Z 03/15Z 03/16Z 03/17Z>>
Type OBS PRVL PRVL PRVL PRVL PRVL PRVL PRVL PRVL PRVL PRVL PRVL PRVL PRVL
VIS 10 >6 >6 >6 >6 >6 >6 >6 >6 >6 >6 >6 >6 >6
CIG 220 -- -- -- -- -- -- -- -- -- -- -- -- --
Cover BKN SCT SCT SCT SCT SCT SCT SCT SCT SCT SCT SCT SCT SCT
FltCat VFR VFR VFR VFR VFR VFR VFR VFR VFR VFR VFR VFR VFR VFR
WX -- -- -- -- -- -- -- -- -- -- -- -- -- --
WDir VRB VRB VRB VRB VRB VRB VRB 50 50 50 50 50 50 50
WSpd 0 3 3 3 3 3 3 5 5 5 5 5 5 5
WGst -- -- -- -- -- -- -- -- -- -- -- -- -- --
WSHgt -- -- -- -- -- -- -- -- -- -- -- -- -- --
WSDir -- -- -- -- -- -- -- -- -- -- -- -- -- --
WSSpd -- -- -- -- -- -- -- -- -- -- -- -- -- --
Raw TAF
KCLE 030242Z 0303/0406 VRB03KT P6SM SCT080
  FM031100 05005KT P6SM SCT250
  FM040200 12003KT P6SM SCT250


Raw METAR
KCLE 030351Z 00000KT 10SM BKN220 23/11 A3002 RMK AO2 SLP175 T02280106
KCLE 030251Z 21004KT 10SM FEW075 FEW150 BKN220 22/12 A3003 RMK AO2 SLP178 T02220117 53008
KCLE 030151Z 21005KT 10SM SCT075 BKN150 OVC220 23/11 A3002 RMK AO2 SLP174 T02330111

METAR Board
Radar Display
Forecast Discussion
For situational awareness. Not to be used for flight planning purposes.